sensor_id;sensor_type;location;lat;lon;timestamp;temperature;humidity
6752;DHT22;3413;47.680;9.166;2023-03-22T00:04:38;14.90;87.10
6752;DHT22;3413;47.680;9.166;2023-03-22T00:09:40;14.90;87.10
6752;DHT22;3413;47.680;9.166;2023-03-22T00:14:42;15.00;87.20
6752;DHT22;3413;47.680;9.166;2023-03-22T00:19:43;15.10;87.20
6752;DHT22;3413;47.680;9.166;2023-03-22T00:24:45;15.10;87.20
6752;DHT22;3413;47.680;9.166;2023-03-22T00:29:47;15.10;87.30
6752;DHT22;3413;47.680;9.166;2023-03-22T00:34:49;15.10;87.30
6752;DHT22;3413;47.680;9.166;2023-03-22T00:39:51;15.10;87.30
6752;DHT22;3413;47.680;9.166;2023-03-22T00:44:55;15.10;87.40
6752;DHT22;3413;47.680;9.166;2023-03-22T00:49:57;15.10;87.20
6752;DHT22;3413;47.680;9.166;2023-03-22T00:54:59;15.10;87.20
6752;DHT22;3413;47.680;9.166;2023-03-22T01:00:03;15.10;87.20
6752;DHT22;3413;47.680;9.166;2023-03-22T01:05:13;15.10;87.20
6752;DHT22;3413;47.680;9.166;2023-03-22T01:10:17;15.00;87.20
6752;DHT22;3413;47.680;9.166;2023-03-22T01:15:20;14.90;87.20
6752;DHT22;3413;47.680;9.166;2023-03-22T01:20:25;14.90;87.20
6752;DHT22;3413;47.680;9.166;2023-03-22T01:25:27;14.90;87.20
6752;DHT22;3413;47.680;9.166;2023-03-22T01:30:29;14.80;87.20
6752;DHT22;3413;47.680;9.166;2023-03-22T01:35:32;14.70;87.00
6752;DHT22;3413;47.680;9.166;2023-03-22T01:40:34;14.60;87.00
6752;DHT22;3413;47.680;9.166;2023-03-22T01:45:38;14.50;86.90
6752;DHT22;3413;47.680;9.166;2023-03-22T01:50:46;14.30;86.70
6752;DHT22;3413;47.680;9.166;2023-03-22T01:55:50;14.10;86.70
6752;DHT22;3413;47.680;9.166;2023-03-22T02:00:58;13.80;86.70
6752;DHT22;3413;47.680;9.166;2023-03-22T02:06:18;13.60;86.60
6752;DHT22;3413;47.680;9.166;2023-03-22T02:11:31;13.50;86.50
6752;DHT22;3413;47.680;9.166;2023-03-22T02:22:22;13.50;86.30
6752;DHT22;3413;47.680;9.166;2023-03-22T02:49:25;13.10;86.10
6752;DHT22;3413;47.680;9.166;2023-03-22T02:54:37;13.10;86.00
6752;DHT22;3413;47.680;9.166;2023-03-22T02:59:46;13.00;85.90
6752;DHT22;3413;47.680;9.166;2023-03-22T03:04:49;13.00;85.90
6752;DHT22;3413;47.680;9.166;2023-03-22T03:09:53;13.00;85.90
6752;DHT22;3413;47.680;9.166;2023-03-22T03:14:56;12.80;85.70
6752;DHT22;3413;47.680;9.166;2023-03-22T03:26:01;12.80;85.90
6752;DHT22;3413;47.680;9.166;2023-03-22T03:31:12;12.80;85.80
6752;DHT22;3413;47.680;9.166;2023-03-22T03:36:19;12.70;85.70
6752;DHT22;3413;47.680;9.166;2023-03-22T03:41:26;12.60;85.50
6752;DHT22;3413;47.680;9.166;2023-03-22T03:46:30;12.60;85.70
6752;DHT22;3413;47.680;9.166;2023-03-22T03:51:33;12.50;85.40
6752;DHT22;3413;47.680;9.166;2023-03-22T03:56:47;12.40;85.50
6752;DHT22;3413;47.680;9.166;2023-03-22T04:01:49;12.20;85.50
6752;DHT22;3413;47.680;9.166;2023-03-22T04:07:05;12.00;85.40
6752;DHT22;3413;47.680;9.166;2023-03-22T04:12:11;11.90;85.60
6752;DHT22;3413;47.680;9.166;2023-03-22T04:17:27;11.90;85.50
6752;DHT22;3413;47.680;9.166;2023-03-22T04:22:35;12.00;85.60
6752;DHT22;3413;47.680;9.166;2023-03-22T04:27:45;12.00;85.60
6752;DHT22;3413;47.680;9.166;2023-03-22T04:32:58;12.00;85.60
6752;DHT22;3413;47.680;9.166;2023-03-22T04:38:29;11.90;85.40
6752;DHT22;3413;47.680;9.166;2023-03-22T04:43:35;11.90;85.20
6752;DHT22;3413;47.680;9.166;2023-03-22T04:48:47;11.80;85.10
6752;DHT22;3413;47.680;9.166;2023-03-22T04:53:53;11.70;85.30
6752;DHT22;3413;47.680;9.166;2023-03-22T04:58:56;11.60;85.40
6752;DHT22;3413;47.680;9.166;2023-03-22T05:04:04;11.50;85.20
6752;DHT22;3413;47.680;9.166;2023-03-22T05:09:45;11.50;85.30
6752;DHT22;3413;47.680;9.166;2023-03-22T05:14:50;11.50;85.20
6752;DHT22;3413;47.680;9.166;2023-03-22T05:20:04;11.50;85.40
6752;DHT22;3413;47.680;9.166;2023-03-22T05:25:17;11.30;85.10
6752;DHT22;3413;47.680;9.166;2023-03-22T05:30:20;11.20;85.00
6752;DHT22;3413;47.680;9.166;2023-03-22T05:35:35;11.10;85.10
6752;DHT22;3413;47.680;9.166;2023-03-22T05:40:44;11.00;85.30
6752;DHT22;3413;47.680;9.166;2023-03-22T05:45:49;10.90;85.20
6752;DHT22;3413;47.680;9.166;2023-03-22T05:51:13;10.80;85.30
6752;DHT22;3413;47.680;9.166;2023-03-22T05:56:45;10.70;85.20
6752;DHT22;3413;47.680;9.166;2023-03-22T06:02:33;10.80;85.30
6752;DHT22;3413;47.680;9.166;2023-03-22T06:08:37;10.70;85.40
6752;DHT22;3413;47.680;9.166;2023-03-22T06:14:16;10.80;85.40
6752;DHT22;3413;47.680;9.166;2023-03-22T06:20:07;10.80;85.30
6752;DHT22;3413;47.680;9.166;2023-03-22T06:39:41;11.00;85.90
6752;DHT22;3413;47.680;9.166;2023-03-22T06:44:44;11.10;85.90
6752;DHT22;3413;47.680;9.166;2023-03-22T06:49:58;11.40;86.20
6752;DHT22;3413;47.680;9.166;2023-03-22T06:55:19;11.50;86.40
6752;DHT22;3413;47.680;9.166;2023-03-22T07:00:22;11.70;86.70
6752;DHT22;3413;47.680;9.166;2023-03-22T07:05:24;11.90;86.90
6752;DHT22;3413;47.680;9.166;2023-03-22T07:10:28;12.10;87.30
6752;DHT22;3413;47.680;9.166;2023-03-22T07:15:30;12.30;87.70
6752;DHT22;3413;47.680;9.166;2023-03-22T07:20:42;12.40;87.70
6752;DHT22;3413;47.680;9.166;2023-03-22T07:25:46;12.60;87.90
6752;DHT22;3413;47.680;9.166;2023-03-22T07:31:04;12.80;88.40
6752;DHT22;3413;47.680;9.166;2023-03-22T07:36:26;12.90;88.50
6752;DHT22;3413;47.680;9.166;2023-03-22T07:41:32;13.10;88.70
6752;DHT22;3413;47.680;9.166;2023-03-22T07:47:01;13.40;89.00
6752;DHT22;3413;47.680;9.166;2023-03-22T07:52:11;13.40;89.00
6752;DHT22;3413;47.680;9.166;2023-03-22T07:57:15;13.60;89.20
6752;DHT22;3413;47.680;9.166;2023-03-22T08:02:23;13.80;89.50
6752;DHT22;3413;47.680;9.166;2023-03-22T08:07:29;14.00;89.80
6752;DHT22;3413;47.680;9.166;2023-03-22T08:12:35;14.20;90.00
6752;DHT22;3413;47.680;9.166;2023-03-22T08:17:57;14.40;90.10
6752;DHT22;3413;47.680;9.166;2023-03-22T08:23:12;14.50;90.10
6752;DHT22;3413;47.680;9.166;2023-03-22T08:28:43;14.80;90.20
6752;DHT22;3413;47.680;9.166;2023-03-22T08:33:47;14.90;90.10
6752;DHT22;3413;47.680;9.166;2023-03-22T08:38:51;15.20;90.20
6752;DHT22;3413;47.680;9.166;2023-03-22T08:44:01;15.40;90.30
6752;DHT22;3413;47.680;9.166;2023-03-22T08:49:20;15.60;90.40
6752;DHT22;3413;47.680;9.166;2023-03-22T08:54:29;15.90;90.60
6752;DHT22;3413;47.680;9.166;2023-03-22T08:59:36;16.10;90.70
6752;DHT22;3413;47.680;9.166;2023-03-22T09:04:54;16.80;91.30
6752;DHT22;3413;47.680;9.166;2023-03-22T09:09:56;17.60;91.70
6752;DHT22;3413;47.680;9.166;2023-03-22T09:14:59;18.40;92.10
6752;DHT22;3413;47.680;9.166;2023-03-22T09:20:05;19.10;92.30
6752;DHT22;3413;47.680;9.166;2023-03-22T09:25:16;19.60;92.50
6752;DHT22;3413;47.680;9.166;2023-03-22T09:30:21;20.00;92.40
6752;DHT22;3413;47.680;9.166;2023-03-22T09:35:23;20.20;92.30
6752;DHT22;3413;47.680;9.166;2023-03-22T09:40:45;20.60;92.30
6752;DHT22;3413;47.680;9.166;2023-03-22T09:45:51;20.60;92.10
6752;DHT22;3413;47.680;9.166;2023-03-22T09:50:54;20.30;91.90
6752;DHT22;3413;47.680;9.166;2023-03-22T09:56:10;20.00;91.90
6752;DHT22;3413;47.680;9.166;2023-03-22T10:06:22;19.40;91.80
6752;DHT22;3413;47.680;9.166;2023-03-22T10:11:37;19.30;91.70
6752;DHT22;3413;47.680;9.166;2023-03-22T10:16:41;19.40;91.80
6752;DHT22;3413;47.680;9.166;2023-03-22T10:21:44;19.50;91.70
6752;DHT22;3413;47.680;9.166;2023-03-22T10:26:48;19.50;91.50
6752;DHT22;3413;47.680;9.166;2023-03-22T10:31:53;19.40;91.70
6752;DHT22;3413;47.680;9.166;2023-03-22T10:36:57;19.60;91.70
6752;DHT22;3413;47.680;9.166;2023-03-22T10:42:05;19.70;91.80
6752;DHT22;3413;47.680;9.166;2023-03-22T10:47:09;19.90;91.70
6752;DHT22;3413;47.680;9.166;2023-03-22T10:52:37;20.10;92.00
6752;DHT22;3413;47.680;9.166;2023-03-22T10:57:48;20.40;92.00
6752;DHT22;3413;47.680;9.166;2023-03-22T11:02:56;20.60;91.90
6752;DHT22;3413;47.680;9.166;2023-03-22T11:08:01;20.80;92.00
6752;DHT22;3413;47.680;9.166;2023-03-22T11:18:14;21.20;92.30
6752;DHT22;3413;47.680;9.166;2023-03-22T11:23:16;21.50;92.30
6752;DHT22;3413;47.680;9.166;2023-03-22T11:28:36;21.70;92.30
6752;DHT22;3413;47.680;9.166;2023-03-22T11:33:53;22.00;92.30
6752;DHT22;3413;47.680;9.166;2023-03-22T11:38:58;22.30;92.30
6752;DHT22;3413;47.680;9.166;2023-03-22T11:44:03;22.50;92.40
6752;DHT22;3413;47.680;9.166;2023-03-22T11:49:10;22.60;92.20
6752;DHT22;3413;47.680;9.166;2023-03-22T11:54:29;22.60;92.20
6752;DHT22;3413;47.680;9.166;2023-03-22T11:59:59;22.60;92.20
6752;DHT22;3413;47.680;9.166;2023-03-22T12:05:06;22.80;92.30
6752;DHT22;3413;47.680;9.166;2023-03-22T12:10:16;22.90;92.20
6752;DHT22;3413;47.680;9.166;2023-03-22T12:15:22;23.00;92.20
6752;DHT22;3413;47.680;9.166;2023-03-22T12:20:48;23.10;92.20
6752;DHT22;3413;47.680;9.166;2023-03-22T12:26:05;23.30;92.20
6752;DHT22;3413;47.680;9.166;2023-03-22T12:31:26;23.50;92.20
6752;DHT22;3413;47.680;9.166;2023-03-22T12:36:48;23.60;92.00
6752;DHT22;3413;47.680;9.166;2023-03-22T12:41:54;23.70;92.00
6752;DHT22;3413;47.680;9.166;2023-03-22T12:47:02;23.80;92.00
6752;DHT22;3413;47.680;9.166;2023-03-22T12:52:29;24.00;91.80
6752;DHT22;3413;47.680;9.166;2023-03-22T12:57:45;24.20;91.90
6752;DHT22;3413;47.680;9.166;2023-03-22T13:08:20;24.10;91.20
6752;DHT22;3413;47.680;9.166;2023-03-22T13:18:30;24.00;91.40
6752;DHT22;3413;47.680;9.166;2023-03-22T13:34:48;24.40;91.20
6752;DHT22;3413;47.680;9.166;2023-03-22T13:39:53;24.30;91.10
6752;DHT22;3413;47.680;9.166;2023-03-22T13:44:56;24.40;91.20
6752;DHT22;3413;47.680;9.166;2023-03-22T13:50:22;24.50;91.00
6752;DHT22;3413;47.680;9.166;2023-03-22T14:00:47;24.40;90.70
6752;DHT22;3413;47.680;9.166;2023-03-22T14:05:58;24.50;90.60
6752;DHT22;3413;47.680;9.166;2023-03-22T14:11:19;24.60;90.40
6752;DHT22;3413;47.680;9.166;2023-03-22T14:16:35;24.70;90.40
6752;DHT22;3413;47.680;9.166;2023-03-22T14:21:45;24.90;90.30
6752;DHT22;3413;47.680;9.166;2023-03-22T14:26:52;24.90;90.10
6752;DHT22;3413;47.680;9.166;2023-03-22T14:32:01;25.00;90.10
6752;DHT22;3413;47.680;9.166;2023-03-22T14:37:04;25.10;90.20
6752;DHT22;3413;47.680;9.166;2023-03-22T14:42:17;25.10;90.00
6752;DHT22;3413;47.680;9.166;2023-03-22T14:47:28;25.10;89.10
6752;DHT22;3413;47.680;9.166;2023-03-22T14:52:52;25.10;88.80
6752;DHT22;3413;47.680;9.166;2023-03-22T14:57:56;25.00;88.30
6752;DHT22;3413;47.680;9.166;2023-03-22T15:03:04;25.00;88.40
6752;DHT22;3413;47.680;9.166;2023-03-22T15:13:11;25.00;87.70
6752;DHT22;3413;47.680;9.166;2023-03-22T15:18:15;25.00;87.40
6752;DHT22;3413;47.680;9.166;2023-03-22T15:28:20;25.00;87.00
6752;DHT22;3413;47.680;9.166;2023-03-22T15:33:36;25.00;86.90
6752;DHT22;3413;47.680;9.166;2023-03-22T15:38:39;25.00;86.60
6752;DHT22;3413;47.680;9.166;2023-03-22T15:43:41;25.00;86.50
6752;DHT22;3413;47.680;9.166;2023-03-22T15:49:15;25.10;86.30
6752;DHT22;3413;47.680;9.166;2023-03-22T15:54:25;25.10;86.00
6752;DHT22;3413;47.680;9.166;2023-03-22T15:59:29;25.10;86.00
6752;DHT22;3413;47.680;9.166;2023-03-22T16:04:32;25.10;85.70
6752;DHT22;3413;47.680;9.166;2023-03-22T16:09:33;25.10;85.60
6752;DHT22;3413;47.680;9.166;2023-03-22T16:14:35;25.10;85.50
6752;DHT22;3413;47.680;9.166;2023-03-22T16:19:36;25.10;85.60
6752;DHT22;3413;47.680;9.166;2023-03-22T16:24:37;25.20;85.60
6752;DHT22;3413;47.680;9.166;2023-03-22T16:29:38;25.20;85.40
6752;DHT22;3413;47.680;9.166;2023-03-22T16:34:39;25.20;85.20
6752;DHT22;3413;47.680;9.166;2023-03-22T16:39:39;25.30;85.60
6752;DHT22;3413;47.680;9.166;2023-03-22T16:44:43;25.30;84.90
6752;DHT22;3413;47.680;9.166;2023-03-22T16:49:45;25.20;84.60
6752;DHT22;3413;47.680;9.166;2023-03-22T16:54:48;25.20;84.60
6752;DHT22;3413;47.680;9.166;2023-03-22T16:59:49;25.10;84.70
6752;DHT22;3413;47.680;9.166;2023-03-22T17:04:53;25.00;84.50
6752;DHT22;3413;47.680;9.166;2023-03-22T17:09:54;24.70;84.40
6752;DHT22;3413;47.680;9.166;2023-03-22T17:14:55;24.30;84.20
6752;DHT22;3413;47.680;9.166;2023-03-22T17:19:56;24.00;84.00
6752;DHT22;3413;47.680;9.166;2023-03-22T17:24:58;23.80;83.80
6752;DHT22;3413;47.680;9.166;2023-03-22T17:30:00;23.60;83.50
6752;DHT22;3413;47.680;9.166;2023-03-22T17:35:01;23.50;83.30
6752;DHT22;3413;47.680;9.166;2023-03-22T17:40:02;23.30;83.00
6752;DHT22;3413;47.680;9.166;2023-03-22T17:45:04;23.00;82.90
6752;DHT22;3413;47.680;9.166;2023-03-22T17:50:06;22.80;82.60
6752;DHT22;3413;47.680;9.166;2023-03-22T17:55:14;22.70;82.40
6752;DHT22;3413;47.680;9.166;2023-03-22T18:00:16;22.50;82.10
6752;DHT22;3413;47.680;9.166;2023-03-22T18:05:23;22.30;81.90
6752;DHT22;3413;47.680;9.166;2023-03-22T18:10:24;22.10;81.80
6752;DHT22;3413;47.680;9.166;2023-03-22T18:15:25;21.90;81.60
6752;DHT22;3413;47.680;9.166;2023-03-22T18:20:26;21.80;81.40
6752;DHT22;3413;47.680;9.166;2023-03-22T18:25:27;21.60;81.20
6752;DHT22;3413;47.680;9.166;2023-03-22T18:30:28;21.40;81.20
6752;DHT22;3413;47.680;9.166;2023-03-22T18:35:29;21.30;81.10
6752;DHT22;3413;47.680;9.166;2023-03-22T18:40:30;21.10;80.90
6752;DHT22;3413;47.680;9.166;2023-03-22T18:45:31;21.00;80.80
6752;DHT22;3413;47.680;9.166;2023-03-22T18:50:34;20.90;80.70
6752;DHT22;3413;47.680;9.166;2023-03-22T18:55:36;20.80;80.60
6752;DHT22;3413;47.680;9.166;2023-03-22T19:00:36;20.60;80.40
6752;DHT22;3413;47.680;9.166;2023-03-22T19:05:38;20.50;80.30
6752;DHT22;3413;47.680;9.166;2023-03-22T19:10:46;20.40;80.20
6752;DHT22;3413;47.680;9.166;2023-03-22T19:15:46;20.20;80.10
6752;DHT22;3413;47.680;9.166;2023-03-22T19:20:47;19.80;80.00
6752;DHT22;3413;47.680;9.166;2023-03-22T19:25:48;19.70;79.80
6752;DHT22;3413;47.680;9.166;2023-03-22T19:30:51;19.50;79.70
6752;DHT22;3413;47.680;9.166;2023-03-22T19:35:53;19.40;79.60
6752;DHT22;3413;47.680;9.166;2023-03-22T19:41:01;19.30;79.40
6752;DHT22;3413;47.680;9.166;2023-03-22T19:46:07;19.10;79.30
6752;DHT22;3413;47.680;9.166;2023-03-22T19:51:08;18.90;79.20
6752;DHT22;3413;47.680;9.166;2023-03-22T19:56:10;18.80;79.10
6752;DHT22;3413;47.680;9.166;2023-03-22T20:01:11;18.60;79.00
6752;DHT22;3413;47.680;9.166;2023-03-22T20:06:12;18.50;78.90
6752;DHT22;3413;47.680;9.166;2023-03-22T20:11:13;18.40;78.90
6752;DHT22;3413;47.680;9.166;2023-03-22T20:16:14;18.30;78.80
6752;DHT22;3413;47.680;9.166;2023-03-22T20:21:15;18.10;78.60
6752;DHT22;3413;47.680;9.166;2023-03-22T20:26:16;18.00;78.60
6752;DHT22;3413;47.680;9.166;2023-03-22T20:31:17;17.90;78.50
6752;DHT22;3413;47.680;9.166;2023-03-22T20:36:18;17.80;78.50
6752;DHT22;3413;47.680;9.166;2023-03-22T20:41:19;17.70;78.40
6752;DHT22;3413;47.680;9.166;2023-03-22T20:46:20;17.60;78.20
6752;DHT22;3413;47.680;9.166;2023-03-22T20:51:21;17.50;78.20
6752;DHT22;3413;47.680;9.166;2023-03-22T20:56:23;17.20;78.10
6752;DHT22;3413;47.680;9.166;2023-03-22T21:01:24;16.90;78.00
6752;DHT22;3413;47.680;9.166;2023-03-22T21:06:25;16.70;78.00
6752;DHT22;3413;47.680;9.166;2023-03-22T21:11:26;16.50;78.00
6752;DHT22;3413;47.680;9.166;2023-03-22T21:16:27;16.30;77.90
6752;DHT22;3413;47.680;9.166;2023-03-22T21:21:28;16.20;77.80
6752;DHT22;3413;47.680;9.166;2023-03-22T21:26:29;16.10;77.70
6752;DHT22;3413;47.680;9.166;2023-03-22T21:31:31;16.00;77.80
6752;DHT22;3413;47.680;9.166;2023-03-22T21:36:32;15.70;77.60
6752;DHT22;3413;47.680;9.166;2023-03-22T21:41:34;15.60;77.60
6752;DHT22;3413;47.680;9.166;2023-03-22T21:46:35;15.50;77.50
6752;DHT22;3413;47.680;9.166;2023-03-22T21:51:45;15.60;77.60
6752;DHT22;3413;47.680;9.166;2023-03-22T21:56:46;15.50;78.10
6752;DHT22;3413;47.680;9.166;2023-03-22T22:01:48;15.40;77.40
6752;DHT22;3413;47.680;9.166;2023-03-22T22:06:50;15.50;77.50
6752;DHT22;3413;47.680;9.166;2023-03-22T22:11:52;15.50;77.50
6752;DHT22;3413;47.680;9.166;2023-03-22T22:16:54;15.50;77.50
6752;DHT22;3413;47.680;9.166;2023-03-22T22:21:54;15.50;77.40
6752;DHT22;3413;47.680;9.166;2023-03-22T22:26:57;15.30;77.50
6752;DHT22;3413;47.680;9.166;2023-03-22T22:31:58;15.20;77.40
6752;DHT22;3413;47.680;9.166;2023-03-22T22:36:59;15.20;77.50
6752;DHT22;3413;47.680;9.166;2023-03-22T22:42:00;15.10;77.50
6752;DHT22;3413;47.680;9.166;2023-03-22T22:47:01;15.10;77.50
6752;DHT22;3413;47.680;9.166;2023-03-22T22:52:02;15.00;77.40
6752;DHT22;3413;47.680;9.166;2023-03-22T22:57:03;15.10;77.50
6752;DHT22;3413;47.680;9.166;2023-03-22T23:02:04;15.10;77.50
6752;DHT22;3413;47.680;9.166;2023-03-22T23:07:06;15.10;77.50
6752;DHT22;3413;47.680;9.166;2023-03-22T23:12:07;15.00;77.50
6752;DHT22;3413;47.680;9.166;2023-03-22T23:17:07;15.00;77.60
6752;DHT22;3413;47.680;9.166;2023-03-22T23:22:09;14.80;77.50
6752;DHT22;3413;47.680;9.166;2023-03-22T23:27:16;14.70;77.70
6752;DHT22;3413;47.680;9.166;2023-03-22T23:32:17;14.70;77.70
6752;DHT22;3413;47.680;9.166;2023-03-22T23:37:18;14.80;77.80
6752;DHT22;3413;47.680;9.166;2023-03-22T23:42:23;14.80;77.80
6752;DHT22;3413;47.680;9.166;2023-03-22T23:47:24;14.70;77.70
6752;DHT22;3413;47.680;9.166;2023-03-22T23:52:24;14.70;77.80
6752;DHT22;3413;47.680;9.166;2023-03-22T23:57:25;14.70;77.80
